La Russell, Missouri
Current Conditions -  °F | °C
As of 12:15 AM on Tuesday 21 Oct 2014 (Local Time) from KHFJ Reporting Station
Moderate Fog Moderate Fog  
Wind Chill: 55°   Ceiling: 400
Heat Index: 55°   Visibility: 0.25mi
Dew Point: 55°   Wind: 0mph
Humidity: 100%   Direction: NA
Pressure: 30.08"   Gusts: NA
Location:  37.14°N, 94.06°W
Report Text: KHFJ 210515Z AUTO 00000KT 1/4SM FG OVC004 13/13 A3008 RMK AO2
Loading
Personal Weather Stations






























Interactive Weather Map New forecast layout! Learn more

10-Day Weather Forecast

Advertisements
Track Severe Weather on mobile